createdAt,value
2019-01-30T00:00:34.612Z,945.25
2019-01-30T00:01:34.599Z,945.18
2019-01-30T00:02:34.587Z,945.14
2019-01-30T00:03:34.574Z,945.16
2019-01-30T00:04:34.588Z,945.16
2019-01-30T00:05:34.547Z,945.14
2019-01-30T00:06:34.533Z,945.13
2019-01-30T00:07:34.521Z,945.10
2019-01-30T00:08:34.506Z,945.09
2019-01-30T00:09:34.505Z,945.05
2019-01-30T00:10:34.481Z,945.06
2019-01-30T00:11:34.473Z,945.04
2019-01-30T00:12:34.455Z,945.07
2019-01-30T00:13:34.444Z,945.07
2019-01-30T00:14:34.428Z,945.02
2019-01-30T00:15:34.415Z,945.01
2019-01-30T00:16:34.402Z,944.99
2019-01-30T00:17:34.387Z,945.01
2019-01-30T00:18:34.375Z,944.98
2019-01-30T00:19:34.362Z,944.99
2019-01-30T00:20:34.346Z,944.98
2019-01-30T00:21:34.336Z,944.95
2019-01-30T00:22:34.333Z,944.98
2019-01-30T00:23:34.314Z,944.97
2019-01-30T00:24:34.295Z,944.93
2019-01-30T00:25:34.301Z,944.92
2019-01-30T00:26:34.270Z,944.92
2019-01-30T00:27:34.260Z,944.89
2019-01-30T00:28:34.240Z,944.88
2019-01-30T00:29:34.226Z,944.85
2019-01-30T00:30:34.211Z,944.82
2019-01-30T00:31:34.208Z,944.83
2019-01-30T00:32:34.186Z,944.87
2019-01-30T00:33:34.178Z,944.80
2019-01-30T00:34:34.162Z,944.81
2019-01-30T00:35:34.153Z,944.80
2019-01-30T00:36:34.130Z,944.82
2019-01-30T00:37:34.132Z,944.79
2019-01-30T00:38:34.106Z,944.74
2019-01-30T00:39:34.095Z,944.73
2019-01-30T00:40:34.098Z,944.75
2019-01-30T00:41:34.061Z,944.76
2019-01-30T00:42:34.045Z,944.74
2019-01-30T00:43:34.043Z,944.71
2019-01-30T00:44:34.024Z,944.69
2019-01-30T00:45:34.005Z,944.72
2019-01-30T00:46:33.993Z,944.68
2019-01-30T00:47:35.025Z,944.65
2019-01-30T00:48:33.966Z,944.61
2019-01-30T00:49:33.958Z,944.60
2019-01-30T00:50:33.940Z,944.65
2019-01-30T00:51:33.925Z,944.61
2019-01-30T00:52:33.938Z,944.63
2019-01-30T00:53:33.899Z,944.59
2019-01-30T00:54:33.883Z,944.54
2019-01-30T00:55:33.868Z,944.57
2019-01-30T00:56:33.856Z,944.59
2019-01-30T00:57:33.846Z,944.55
2019-01-30T00:58:33.831Z,944.52
2019-01-30T00:59:33.819Z,944.56
2019-01-30T01:00:33.801Z,944.48
2019-01-30T01:01:33.806Z,944.48
2019-01-30T01:02:33.772Z,944.44
2019-01-30T01:03:33.757Z,944.43
2019-01-30T01:04:33.746Z,944.43
2019-01-30T01:05:33.732Z,944.46
2019-01-30T01:06:33.718Z,944.45
2019-01-30T01:07:33.745Z,944.44
2019-01-30T01:08:33.687Z,944.42
2019-01-30T01:09:33.674Z,944.42
2019-01-30T01:10:33.683Z,944.40
2019-01-30T01:11:33.668Z,944.36
2019-01-30T01:12:33.631Z,944.36
2019-01-30T01:13:33.618Z,944.36
2019-01-30T01:14:33.607Z,944.39
2019-01-30T01:15:33.589Z,944.34
2019-01-30T01:16:33.576Z,944.35
2019-01-30T01:17:33.562Z,944.35
2019-01-30T01:18:33.554Z,944.36
2019-01-30T01:19:33.534Z,944.27
2019-01-30T01:20:33.518Z,944.34
2019-01-30T01:21:33.506Z,944.26
2019-01-30T01:22:33.491Z,944.31
2019-01-30T01:23:33.482Z,944.31
2019-01-30T01:24:33.478Z,944.30
2019-01-30T01:25:33.448Z,944.26
2019-01-30T01:26:33.436Z,944.23
2019-01-30T01:27:33.446Z,944.25
2019-01-30T01:28:33.405Z,944.25
2019-01-30T01:29:33.394Z,944.22
2019-01-30T01:30:33.377Z,944.17
2019-01-30T01:31:33.362Z,944.20
2019-01-30T01:32:33.366Z,944.19
2019-01-30T01:33:33.364Z,944.17
2019-01-30T01:34:33.321Z,944.21
2019-01-30T01:35:33.308Z,944.17
2019-01-30T01:36:33.320Z,944.13
2019-01-30T01:37:33.276Z,944.16
2019-01-30T01:38:33.265Z,944.14
2019-01-30T01:39:33.250Z,944.15
2019-01-30T01:40:33.233Z,944.13
2019-01-30T01:41:33.221Z,944.12
2019-01-30T01:42:33.206Z,944.11
2019-01-30T01:43:33.199Z,944.08
2019-01-30T01:44:33.179Z,944.11
2019-01-30T01:45:33.165Z,944.05
2019-01-30T01:46:33.149Z,944.02
2019-01-30T01:47:33.160Z,944.03
2019-01-30T01:48:33.130Z,944.00
2019-01-30T01:49:33.107Z,943.98
2019-01-30T01:50:33.129Z,943.92
2019-01-30T01:51:33.082Z,943.90
2019-01-30T01:52:33.068Z,943.91
2019-01-30T01:53:33.062Z,943.87
2019-01-30T01:54:33.039Z,943.83
2019-01-30T01:55:33.025Z,943.82
2019-01-30T01:56:33.009Z,943.80
2019-01-30T01:57:32.997Z,943.78
2019-01-30T01:58:32.981Z,943.74
2019-01-30T01:59:32.973Z,943.70
2019-01-30T02:00:35.575Z,943.69
2019-01-30T02:01:32.937Z,943.65
2019-01-30T02:02:32.923Z,943.67
2019-01-30T02:03:32.914Z,943.66
2019-01-30T02:04:32.893Z,943.73
2019-01-30T02:05:32.881Z,943.64
2019-01-30T02:06:32.885Z,943.65
2019-01-30T02:07:32.851Z,943.65
2019-01-30T02:08:32.840Z,943.62
2019-01-30T02:09:32.823Z,943.61
2019-01-30T02:10:32.810Z,943.60
2019-01-30T02:11:32.794Z,943.58
2019-01-30T02:12:32.778Z,943.55
2019-01-30T02:13:32.768Z,943.55
2019-01-30T02:14:32.750Z,943.56
2019-01-30T02:15:32.736Z,943.50
2019-01-30T02:16:32.721Z,943.53
2019-01-30T02:17:32.706Z,943.49
2019-01-30T02:18:32.692Z,943.43
2019-01-30T02:19:32.679Z,943.43
2019-01-30T02:20:32.661Z,943.42
2019-01-30T02:21:32.668Z,943.42
2019-01-30T02:22:32.635Z,943.41
2019-01-30T02:23:32.649Z,943.40
2019-01-30T02:24:32.604Z,943.34
2019-01-30T02:25:32.591Z,943.33
2019-01-30T02:26:32.576Z,943.24
2019-01-30T02:27:34.104Z,943.26
2019-01-30T02:28:32.570Z,943.25
2019-01-30T02:29:32.534Z,943.22
2019-01-30T02:30:32.550Z,943.18
2019-01-30T02:31:32.503Z,943.19
2019-01-30T02:32:32.488Z,943.17
2019-01-30T02:33:32.479Z,943.11
2019-01-30T02:34:32.459Z,943.12
2019-01-30T02:35:32.451Z,943.08
2019-01-30T02:36:32.435Z,943.09
2019-01-30T02:37:32.416Z,943.10
2019-01-30T02:38:32.402Z,943.04
2019-01-30T02:39:32.388Z,943.02
2019-01-30T02:40:32.375Z,943.02
2019-01-30T02:41:32.369Z,943.01
2019-01-30T02:42:32.344Z,943.07
2019-01-30T02:43:32.357Z,943.00
2019-01-30T02:44:32.313Z,943.01
2019-01-30T02:45:32.300Z,943.02
2019-01-30T02:46:32.284Z,943.00
2019-01-30T02:47:32.273Z,942.97
2019-01-30T02:48:32.255Z,943.00
2019-01-30T02:49:32.242Z,942.92
2019-01-30T02:50:35.004Z,942.93
2019-01-30T02:51:32.213Z,942.93
2019-01-30T02:52:32.198Z,942.93
2019-01-30T02:53:32.186Z,942.92
2019-01-30T02:54:32.172Z,942.96
2019-01-30T02:55:32.160Z,942.93
2019-01-30T02:56:32.137Z,942.91
2019-01-30T02:57:32.129Z,942.87
2019-01-30T02:58:32.111Z,942.85
2019-01-30T02:59:32.097Z,942.84
2019-01-30T03:00:32.080Z,942.80
2019-01-30T03:01:32.068Z,942.79
2019-01-30T03:02:32.053Z,942.80
2019-01-30T03:03:32.038Z,942.81
2019-01-30T03:04:32.022Z,942.77
2019-01-30T03:05:32.007Z,942.85
2019-01-30T03:06:31.993Z,942.80
2019-01-30T03:07:31.978Z,942.82
2019-01-30T03:08:31.962Z,942.81
2019-01-30T03:09:31.949Z,942.79
2019-01-30T03:10:31.934Z,942.75
2019-01-30T03:11:31.921Z,942.78
2019-01-30T03:12:31.908Z,942.77
2019-01-30T03:13:31.894Z,942.78
2019-01-30T03:14:31.874Z,942.76
2019-01-30T03:15:31.865Z,942.81
2019-01-30T03:16:31.847Z,942.81
2019-01-30T03:17:31.831Z,942.79
2019-01-30T03:18:31.817Z,942.78
2019-01-30T03:19:31.803Z,942.72
2019-01-30T03:20:31.786Z,942.73
2019-01-30T03:21:31.772Z,942.72
2019-01-30T03:22:31.790Z,942.67
2019-01-30T03:23:31.745Z,942.65
2019-01-30T03:24:31.728Z,942.63
2019-01-30T03:25:31.713Z,942.69
2019-01-30T03:26:31.700Z,942.64
2019-01-30T03:27:31.683Z,942.61
2019-01-30T03:28:31.666Z,942.60
2019-01-30T03:29:31.670Z,942.60
2019-01-30T03:30:31.641Z,942.57
2019-01-30T03:31:31.630Z,942.62
2019-01-30T03:32:31.629Z,942.65
2019-01-30T03:33:31.599Z,942.65
2019-01-30T03:34:31.585Z,942.58
2019-01-30T03:35:31.565Z,942.64
2019-01-30T03:36:31.553Z,942.57
2019-01-30T03:37:31.539Z,942.57
2019-01-30T03:38:31.521Z,942.56
2019-01-30T03:39:31.506Z,942.48
2019-01-30T03:40:31.490Z,942.59
2019-01-30T03:41:31.476Z,942.51
2019-01-30T03:42:31.463Z,942.55
2019-01-30T03:43:31.451Z,942.55
2019-01-30T03:44:31.432Z,942.51
2019-01-30T03:45:31.419Z,942.50
2019-01-30T03:46:31.401Z,942.48
2019-01-30T03:47:31.410Z,942.48
2019-01-30T03:48:31.386Z,942.50
2019-01-30T03:49:31.359Z,942.46
2019-01-30T03:50:31.345Z,942.48
2019-01-30T03:51:31.327Z,942.46
2019-01-30T03:52:31.314Z,942.42
2019-01-30T03:53:31.304Z,942.43
2019-01-30T03:54:31.284Z,942.44
2019-01-30T03:55:31.270Z,942.35
2019-01-30T03:56:31.254Z,942.36
2019-01-30T03:57:31.243Z,942.36
2019-01-30T03:58:31.231Z,942.26
2019-01-30T03:59:31.215Z,942.26
2019-01-30T04:00:31.196Z,942.25
2019-01-30T04:01:31.238Z,942.23
2019-01-30T04:02:31.170Z,942.24
2019-01-30T04:03:31.155Z,942.25
2019-01-30T04:04:31.139Z,942.24
2019-01-30T04:05:31.135Z,942.24
2019-01-30T04:06:31.136Z,942.24
2019-01-30T04:07:31.102Z,942.21
2019-01-30T04:08:31.094Z,942.23
2019-01-30T04:09:31.077Z,942.23
2019-01-30T04:10:31.076Z,942.23
2019-01-30T04:11:31.042Z,942.22
2019-01-30T04:12:31.020Z,942.23
2019-01-30T04:13:31.033Z,942.12
2019-01-30T04:14:30.994Z,942.19
2019-01-30T04:15:30.977Z,942.14
2019-01-30T04:16:30.960Z,942.15
2019-01-30T04:17:30.946Z,942.14
2019-01-30T04:18:30.948Z,942.10
2019-01-30T04:19:30.921Z,942.13
2019-01-30T04:20:30.901Z,942.09
2019-01-30T04:21:30.887Z,942.09
2019-01-30T04:22:30.873Z,942.03
2019-01-30T04:23:30.856Z,942.05
2019-01-30T04:24:30.851Z,942.04
2019-01-30T04:25:30.826Z,942.01
2019-01-30T04:26:30.817Z,941.98
2019-01-30T04:27:30.802Z,941.99
2019-01-30T04:28:30.786Z,942.00
2019-01-30T04:29:30.768Z,941.94
2019-01-30T04:30:30.754Z,941.95
2019-01-30T04:31:37.970Z,941.91
2019-01-30T04:32:30.728Z,941.93
2019-01-30T04:33:30.712Z,941.93
2019-01-30T04:34:30.695Z,941.89
2019-01-30T04:35:30.684Z,941.88
2019-01-30T04:36:30.671Z,941.87
2019-01-30T04:37:30.653Z,941.84
2019-01-30T04:38:30.662Z,941.86
2019-01-30T04:39:30.623Z,941.86
2019-01-30T04:40:30.605Z,941.84
2019-01-30T04:41:30.591Z,941.87
2019-01-30T04:42:30.578Z,941.83
2019-01-30T04:43:30.561Z,941.82
2019-01-30T04:44:30.608Z,941.83
2019-01-30T04:45:30.536Z,941.84
2019-01-30T04:46:30.519Z,941.86
2019-01-30T04:47:30.508Z,941.88
2019-01-30T04:48:30.483Z,941.84
2019-01-30T04:49:30.470Z,941.79
2019-01-30T04:50:30.462Z,941.80
2019-01-30T04:51:30.439Z,941.81
2019-01-30T04:52:30.424Z,941.79
2019-01-30T04:53:30.411Z,941.77
2019-01-30T04:54:30.400Z,941.77
2019-01-30T04:55:30.383Z,941.75
2019-01-30T04:56:30.373Z,941.73
2019-01-30T04:57:30.361Z,941.70
2019-01-30T04:58:30.337Z,941.68
2019-01-30T04:59:30.326Z,941.70
2019-01-30T05:00:30.309Z,941.69
2019-01-30T05:01:30.288Z,941.68
2019-01-30T05:02:30.276Z,941.64
2019-01-30T05:03:30.259Z,941.64
2019-01-30T05:04:30.248Z,941.64
2019-01-30T05:05:30.229Z,941.61
2019-01-30T05:06:30.217Z,941.63
2019-01-30T05:07:30.200Z,941.64
2019-01-30T05:08:30.184Z,941.63
2019-01-30T05:09:30.200Z,941.65
2019-01-30T05:10:30.185Z,941.60
2019-01-30T05:11:30.139Z,941.65
2019-01-30T05:12:30.123Z,941.56
2019-01-30T05:13:30.110Z,941.64
2019-01-30T05:14:30.132Z,941.55
2019-01-30T05:15:30.086Z,941.51
2019-01-30T05:16:30.083Z,941.58
2019-01-30T05:17:30.050Z,941.53
2019-01-30T05:18:30.033Z,941.52
2019-01-30T05:19:30.018Z,941.53
2019-01-30T05:20:30.009Z,941.55
2019-01-30T05:21:29.995Z,941.53
2019-01-30T05:22:29.975Z,941.54
2019-01-30T05:23:29.983Z,941.53
2019-01-30T05:24:29.971Z,941.54
2019-01-30T05:25:29.928Z,941.49
2019-01-30T05:26:29.915Z,941.53
2019-01-30T05:27:29.899Z,941.51
2019-01-30T05:28:29.888Z,941.50
2019-01-30T05:29:29.871Z,941.49
2019-01-30T05:30:29.854Z,941.48
2019-01-30T05:31:29.836Z,941.45
2019-01-30T05:32:29.821Z,941.46
2019-01-30T05:33:29.818Z,941.44
2019-01-30T05:34:29.958Z,941.43
2019-01-30T05:35:29.837Z,941.46
2019-01-30T05:36:29.799Z,941.38
2019-01-30T05:37:29.754Z,941.40
2019-01-30T05:38:29.736Z,941.38
2019-01-30T05:39:29.716Z,941.39
2019-01-30T05:40:29.700Z,941.36
2019-01-30T05:41:29.687Z,941.40
2019-01-30T05:42:29.689Z,941.38
2019-01-30T05:43:29.654Z,941.37
2019-01-30T05:44:29.635Z,941.33
2019-01-30T05:45:29.625Z,941.38
2019-01-30T05:46:29.605Z,941.29
2019-01-30T05:47:29.614Z,941.29
2019-01-30T05:48:29.577Z,941.30
2019-01-30T05:49:29.568Z,941.25
2019-01-30T07:42:12.280Z,940.90
2019-01-30T07:43:11.403Z,940.91
2019-01-30T07:45:06.783Z,940.94
2019-01-30T07:46:04.763Z,940.88
2019-01-30T07:47:04.587Z,940.89
2019-01-30T07:48:04.359Z,940.93
2019-01-30T07:49:04.277Z,940.87
2019-01-30T07:50:11.811Z,940.88
2019-01-30T07:51:57.974Z,940.87
2019-01-30T07:52:58.902Z,940.90
2019-01-30T07:54:50.884Z,940.90
2019-01-30T07:55:50.620Z,940.89
2019-01-30T07:57:44.679Z,940.96
2019-01-30T07:58:43.667Z,940.99
2019-01-30T08:00:36.606Z,941.01
2019-01-30T08:01:37.075Z,940.98
2019-01-30T08:03:29.871Z,940.98
2019-01-30T08:04:29.297Z,941.01
2019-01-30T08:06:23.190Z,941.00
2019-01-30T08:07:22.756Z,941.03
2019-01-30T08:09:16.999Z,941.03
2019-01-30T08:10:16.363Z,941.07
2019-01-30T08:12:12.528Z,941.00
2019-01-30T08:13:10.570Z,941.02
2019-01-30T08:15:03.881Z,940.99
2019-01-30T08:16:03.989Z,941.04
2019-01-30T08:17:56.652Z,940.98
2019-01-30T08:18:58.081Z,940.98
2019-01-30T08:20:49.482Z,940.95
2019-01-30T08:21:49.420Z,940.92
2019-01-30T08:23:44.156Z,940.92
2019-01-30T08:24:43.104Z,940.96
2019-01-30T08:26:37.864Z,941.00
2019-01-30T08:27:36.989Z,940.96
2019-01-30T08:29:29.568Z,941.00
2019-01-30T08:30:30.124Z,941.02
2019-01-30T08:32:22.961Z,941.00
2019-01-30T08:33:22.790Z,940.99
2019-01-30T08:35:16.433Z,940.97
2019-01-30T08:36:16.356Z,940.96
2019-01-30T08:38:09.562Z,940.93
2019-01-30T08:39:16.439Z,940.92
2019-01-30T08:41:02.704Z,940.89
2019-01-30T08:42:02.656Z,940.86
2019-01-30T08:43:57.938Z,940.84
2019-01-30T08:45:02.845Z,940.88
2019-01-30T08:46:56.859Z,940.94
2019-01-30T08:47:49.167Z,940.95
2019-01-30T08:49:42.877Z,940.93
2019-01-30T08:50:42.349Z,940.89
2019-01-30T08:52:35.347Z,940.91
2019-01-30T08:53:37.367Z,940.92
2019-01-30T08:55:29.107Z,940.91
2019-01-30T08:56:39.053Z,940.91
2019-01-30T08:58:21.878Z,940.90
2019-01-30T08:59:21.933Z,940.90
2019-01-30T09:00:22.119Z,940.94
2019-01-30T09:01:21.947Z,940.91
2019-01-30T09:02:29.059Z,940.92
2019-01-30T09:04:14.939Z,940.95
2019-01-30T09:05:14.904Z,940.91
2019-01-30T09:07:13.889Z,940.97
2019-01-30T09:08:08.864Z,940.96
2019-01-30T09:10:01.847Z,940.95
2019-01-30T09:11:01.157Z,940.95
2019-01-30T09:12:54.530Z,940.93
2019-01-30T09:13:54.235Z,940.96
2019-01-30T09:15:47.791Z,940.95
2019-01-30T09:16:49.246Z,940.97
2019-01-30T09:18:40.238Z,940.96
2019-01-30T09:19:40.235Z,940.96
2019-01-30T09:21:33.365Z,940.97
2019-01-30T09:22:33.864Z,940.93
2019-01-30T09:24:28.036Z,940.89
2019-01-30T09:25:27.529Z,940.92
2019-01-30T09:27:28.366Z,940.87
2019-01-30T09:28:21.223Z,940.91
2019-01-30T09:30:19.002Z,940.93
2019-01-30T09:31:16.051Z,940.86
2019-01-30T09:33:09.627Z,940.93
2019-01-30T09:34:09.456Z,940.98
2019-01-30T09:36:02.539Z,940.91
2019-01-30T09:37:10.500Z,940.96
2019-01-30T09:38:55.769Z,940.99
2019-01-30T09:39:56.380Z,940.98
2019-01-30T09:41:50.079Z,940.97
2019-01-30T09:42:49.514Z,941.02
2019-01-30T09:44:45.524Z,941.01
2019-01-30T09:45:44.569Z,941.00
2019-01-30T09:47:37.946Z,940.97
2019-01-30T09:48:37.891Z,940.88
2019-01-30T09:50:31.315Z,940.94
2019-01-30T09:51:31.183Z,940.97
2019-01-30T09:53:24.985Z,940.99
2019-01-30T09:54:25.614Z,940.94
2019-01-30T09:55:24.936Z,940.95
2019-01-30T09:56:24.870Z,940.96
2019-01-30T09:57:25.120Z,941.00
2019-01-30T09:58:26.381Z,940.94
2019-01-30T09:59:24.779Z,940.96
2019-01-30T10:00:24.835Z,940.97
2019-01-30T10:01:37.971Z,940.96
2019-01-30T10:02:25.485Z,941.00
2019-01-30T10:03:35.735Z,940.89
2019-01-30T10:04:27.549Z,940.95
2019-01-30T10:05:24.769Z,940.96
2019-01-30T10:06:28.577Z,940.93
2019-01-30T10:07:26.482Z,940.91
2019-01-30T10:08:24.804Z,940.92
2019-01-30T10:09:24.729Z,941.03
2019-01-30T10:10:24.748Z,940.97
2019-01-30T10:11:24.702Z,940.93
2019-01-30T10:12:26.545Z,940.98
2019-01-30T10:13:24.689Z,940.98
2019-01-30T10:14:31.898Z,940.94
2019-01-30T10:16:18.331Z,941.00
2019-01-30T10:17:18.599Z,941.03
2019-01-30T10:19:11.487Z,941.00
2019-01-30T10:20:11.673Z,941.02
2019-01-30T10:22:05.957Z,940.94
2019-01-30T10:23:05.325Z,940.96
2019-01-30T10:24:59.762Z,941.07
2019-01-30T10:25:58.822Z,940.93
2019-01-30T10:26:58.775Z,940.93
2019-01-30T10:27:58.716Z,940.85
2019-01-30T10:29:08.488Z,940.96
2019-01-30T10:30:53.671Z,940.94
2019-01-30T10:31:53.002Z,941.00
2019-01-30T10:33:00.714Z,940.96
2019-01-30T10:33:54.201Z,940.93
2019-01-30T10:35:02.195Z,940.94
2019-01-30T10:36:47.814Z,940.82
2019-01-30T10:37:47.842Z,940.85
2019-01-30T10:38:55.674Z,940.80
2019-01-30T10:39:48.498Z,940.80
2019-01-30T10:40:47.393Z,940.85
2019-01-30T10:41:47.910Z,940.85
2019-01-30T10:42:57.275Z,940.81
2019-01-30T10:44:39.139Z,940.81
2019-01-30T10:45:39.834Z,940.80
2019-01-30T10:47:32.991Z,940.73
2019-01-30T10:48:36.363Z,940.72
2019-01-30T10:49:31.667Z,940.74
2019-01-30T10:50:31.656Z,940.75
2019-01-30T10:51:31.631Z,940.72
2019-01-30T10:52:31.630Z,940.72
2019-01-30T10:53:39.053Z,940.75
2019-01-30T10:55:25.295Z,940.68
2019-01-30T10:56:25.251Z,940.70
2019-01-30T10:58:18.564Z,940.70
2019-01-30T10:59:18.144Z,940.72
2019-01-30T11:01:11.134Z,940.75
2019-01-30T11:02:11.013Z,940.72
2019-01-30T11:04:12.621Z,940.70
2019-01-30T11:05:03.962Z,940.64
2019-01-30T11:06:57.321Z,940.66
2019-01-30T11:07:57.183Z,940.70
2019-01-30T11:09:50.114Z,940.72
2019-01-30T11:10:51.021Z,940.70
2019-01-30T11:12:48.369Z,940.68
2019-01-30T11:13:45.832Z,940.68
2019-01-30T11:15:37.956Z,940.64
2019-01-30T11:16:38.343Z,940.66
2019-01-30T11:17:37.034Z,940.69
2019-01-30T11:18:37.082Z,940.61
2019-01-30T11:19:36.680Z,940.62
2019-01-30T11:20:37.035Z,940.62
2019-01-30T11:21:36.078Z,940.66
2019-01-30T11:22:36.532Z,940.53
2019-01-30T11:23:35.963Z,940.53
2019-01-30T11:24:35.954Z,940.49
2019-01-30T11:25:35.969Z,940.39
2019-01-30T11:26:36.483Z,940.38
2019-01-30T11:27:35.935Z,940.38
2019-01-30T11:28:35.935Z,940.39
2019-01-30T11:29:35.919Z,940.35
2019-01-30T11:30:35.907Z,940.37
2019-01-30T11:31:35.906Z,940.35
2019-01-30T11:32:35.911Z,940.38
2019-01-30T11:33:35.888Z,940.34
2019-01-30T11:34:35.879Z,940.38
2019-01-30T11:35:35.875Z,940.38
2019-01-30T11:36:35.865Z,940.35
2019-01-30T11:37:35.856Z,940.43
2019-01-30T11:38:35.848Z,940.38
2019-01-30T11:39:35.858Z,940.36
2019-01-30T11:40:35.835Z,940.35
2019-01-30T11:41:35.823Z,940.33
2019-01-30T11:42:35.819Z,940.37
2019-01-30T11:43:35.826Z,940.38
2019-01-30T11:44:35.831Z,940.33
2019-01-30T11:45:35.827Z,940.29
2019-01-30T11:46:35.813Z,940.30
2019-01-30T11:47:35.782Z,940.29
2019-01-30T11:48:35.777Z,940.27
2019-01-30T11:49:35.771Z,940.24
2019-01-30T11:50:35.763Z,940.22
2019-01-30T11:51:35.751Z,940.23
2019-01-30T11:52:35.742Z,940.23
2019-01-30T11:53:35.732Z,940.23
2019-01-30T11:54:38.918Z,940.21
2019-01-30T11:56:29.252Z,940.21
2019-01-30T11:57:29.123Z,940.15
2019-01-30T11:59:22.572Z,940.13
2019-01-30T12:00:22.478Z,940.12
2019-01-30T12:01:22.494Z,940.16
2019-01-30T12:02:22.555Z,940.17
2019-01-30T12:03:22.500Z,940.10
2019-01-30T12:04:22.443Z,940.15
2019-01-30T12:05:22.437Z,940.15
2019-01-30T12:06:22.431Z,940.06
2019-01-30T12:07:22.432Z,940.13
2019-01-30T12:08:22.416Z,940.21
2019-01-30T12:09:22.408Z,940.17
2019-01-30T12:10:22.398Z,940.21
2019-01-30T12:11:22.417Z,940.16
2019-01-30T12:12:22.383Z,940.17
2019-01-30T12:13:22.382Z,940.15
2019-01-30T12:14:22.370Z,940.13
2019-01-30T12:15:22.370Z,940.12
2019-01-30T12:16:22.356Z,940.09
2019-01-30T12:17:22.348Z,940.08
2019-01-30T12:18:22.350Z,940.08
2019-01-30T12:19:22.342Z,940.13
2019-01-30T12:20:22.332Z,940.10
2019-01-30T12:21:22.313Z,940.14
2019-01-30T12:22:22.328Z,940.12
2019-01-30T12:23:22.297Z,940.14
2019-01-30T12:24:22.310Z,940.14
2019-01-30T12:25:22.281Z,940.19
2019-01-30T12:26:22.303Z,940.24
2019-01-30T12:27:22.276Z,940.22
2019-01-30T12:28:22.275Z,940.24
2019-01-30T12:29:22.274Z,940.27
2019-01-30T12:30:22.241Z,940.26
2019-01-30T12:31:24.039Z,940.27
2019-01-30T12:32:22.229Z,940.21
2019-01-30T12:33:22.234Z,940.29
2019-01-30T12:34:28.048Z,940.31
2019-01-30T12:35:22.206Z,940.25
2019-01-30T12:36:22.203Z,940.25
2019-01-30T12:37:22.197Z,940.27
2019-01-30T12:38:22.180Z,940.30
2019-01-30T12:39:22.171Z,940.23
2019-01-30T12:40:22.164Z,940.25
2019-01-30T12:41:29.753Z,940.24
2019-01-30T12:43:16.651Z,940.27
2019-01-30T12:44:16.455Z,940.23
2019-01-30T12:45:16.417Z,940.27
2019-01-30T12:46:16.500Z,940.24
2019-01-30T12:47:20.034Z,940.24
2019-01-30T12:48:16.219Z,940.18
2019-01-30T12:49:16.178Z,940.23
2019-01-30T12:50:16.172Z,940.27
2019-01-30T12:51:16.165Z,940.17
2019-01-30T12:52:16.153Z,940.21
2019-01-30T12:53:16.147Z,940.26
2019-01-30T12:54:16.235Z,940.18
2019-01-30T12:55:16.129Z,940.21
2019-01-30T12:56:16.120Z,940.27
2019-01-30T12:57:16.109Z,940.23
2019-01-30T12:58:16.105Z,940.20
2019-01-30T12:59:16.098Z,940.23
2019-01-30T13:00:16.103Z,940.29
2019-01-30T13:01:16.078Z,940.23
2019-01-30T13:02:16.095Z,940.24
2019-01-30T13:03:16.066Z,940.23
2019-01-30T13:04:16.055Z,940.26
2019-01-30T13:05:16.078Z,940.31
2019-01-30T13:06:16.035Z,940.31
2019-01-30T13:07:23.366Z,940.24
2019-01-30T13:09:09.595Z,940.30
2019-01-30T13:10:09.613Z,940.29
2019-01-30T13:12:02.404Z,940.32
2019-01-30T13:13:02.316Z,940.30
2019-01-30T13:14:55.450Z,940.37
2019-01-30T13:15:55.323Z,940.39
2019-01-30T13:17:48.258Z,940.28
2019-01-30T13:18:48.155Z,940.31
2019-01-30T13:20:41.051Z,940.32
2019-01-30T13:21:40.974Z,940.24
2019-01-30T13:23:34.022Z,940.27
2019-01-30T13:24:33.758Z,940.27
2019-01-30T13:26:26.888Z,940.25
2019-01-30T13:27:26.578Z,940.25
2019-01-30T13:29:19.492Z,940.27
2019-01-30T13:30:19.435Z,940.29
2019-01-30T13:32:12.300Z,940.32
2019-01-30T13:33:12.299Z,940.33
2019-01-30T13:35:05.693Z,940.29
2019-01-30T13:36:05.632Z,940.23
2019-01-30T13:37:58.823Z,940.26
2019-01-30T13:38:58.490Z,940.22
2019-01-30T13:40:52.046Z,940.29
2019-01-30T13:41:52.780Z,940.30
2019-01-30T13:43:44.800Z,940.29
2019-01-30T13:44:44.777Z,940.30
2019-01-30T13:46:38.264Z,940.23
2019-01-30T13:47:38.212Z,940.24
2019-01-30T13:49:31.174Z,940.30
2019-01-30T13:50:31.030Z,940.26
2019-01-30T13:52:26.167Z,940.26
2019-01-30T13:53:24.671Z,940.29
2019-01-30T13:54:24.733Z,940.30
2019-01-30T13:55:24.382Z,940.29
2019-01-30T13:56:24.379Z,940.25
2019-01-30T13:57:24.348Z,940.25
2019-01-30T13:58:31.717Z,940.30
2019-01-30T14:00:17.943Z,940.30
2019-01-30T14:01:18.007Z,940.27
2019-01-30T14:03:11.405Z,940.31
2019-01-30T14:04:11.616Z,940.34
2019-01-30T14:06:04.508Z,940.31
2019-01-30T14:07:04.185Z,940.33
2019-01-30T14:08:58.576Z,940.33
2019-01-30T14:09:57.992Z,940.39
2019-01-30T14:11:51.353Z,940.35
2019-01-30T14:12:50.873Z,940.38
2019-01-30T14:14:44.478Z,940.36
2019-01-30T14:15:44.214Z,940.36
2019-01-30T14:17:37.123Z,940.40
2019-01-30T14:18:37.145Z,940.41
2019-01-30T14:20:30.569Z,940.42
2019-01-30T14:21:30.418Z,940.45
2019-01-30T14:23:23.921Z,940.43
2019-01-30T14:24:23.875Z,940.41
2019-01-30T14:26:16.862Z,940.39
2019-01-30T14:27:16.736Z,940.43
2019-01-30T14:29:10.260Z,940.41
2019-01-30T14:30:10.060Z,940.37
2019-01-30T14:32:03.936Z,940.38
2019-01-30T14:33:03.864Z,940.41
2019-01-30T14:34:03.747Z,940.35
2019-01-30T14:35:10.594Z,940.40
2019-01-30T14:36:05.298Z,940.38
2019-01-30T14:37:03.524Z,940.41
2019-01-30T14:38:05.274Z,940.40
2019-01-30T14:39:03.530Z,940.47
2019-01-30T14:40:03.544Z,940.53
2019-01-30T14:41:03.549Z,940.45
2019-01-30T14:42:03.552Z,940.49
2019-01-30T14:43:03.524Z,940.48
2019-01-30T14:44:03.587Z,940.53
2019-01-30T14:45:03.502Z,940.55
2019-01-30T14:46:03.482Z,940.44
2019-01-30T14:47:03.439Z,940.42
2019-01-30T14:48:03.438Z,940.45
2019-01-30T14:49:03.462Z,940.46
2019-01-30T14:50:03.565Z,940.49
2019-01-30T14:51:03.404Z,940.45
2019-01-30T14:52:03.396Z,940.47
2019-01-30T14:53:03.397Z,940.50
2019-01-30T14:54:03.412Z,940.47
2019-01-30T14:55:03.375Z,940.44
2019-01-30T14:56:03.402Z,940.53
2019-01-30T14:57:03.406Z,940.48
2019-01-30T14:58:03.387Z,940.48
2019-01-30T14:59:03.351Z,940.49
2019-01-30T15:00:03.386Z,940.49
2019-01-30T15:01:03.335Z,940.47
2019-01-30T15:02:03.316Z,940.48
2019-01-30T15:03:03.335Z,940.51
2019-01-30T15:04:03.296Z,940.47
2019-01-30T15:05:03.294Z,940.52
2019-01-30T15:06:03.293Z,940.54
2019-01-30T15:07:03.280Z,940.57
2019-01-30T15:08:03.270Z,940.50
2019-01-30T15:09:03.257Z,940.58
2019-01-30T15:10:03.277Z,940.58
2019-01-30T15:11:03.313Z,940.57
2019-01-30T15:12:03.306Z,940.56
2019-01-30T15:13:03.223Z,940.53
2019-01-30T15:14:03.248Z,940.51
2019-01-30T15:15:03.232Z,940.54
2019-01-30T15:16:03.204Z,940.57
2019-01-30T15:17:03.187Z,940.49
2019-01-30T15:18:03.250Z,940.51
2019-01-30T15:19:03.195Z,940.53
2019-01-30T15:20:03.191Z,940.52
2019-01-30T15:21:03.200Z,940.57
2019-01-30T15:22:03.185Z,940.56
2019-01-30T15:23:04.782Z,940.54
2019-01-30T15:24:03.127Z,940.54
2019-01-30T15:25:03.186Z,940.56
2019-01-30T15:26:03.142Z,940.60
2019-01-30T15:27:03.100Z,940.55
2019-01-30T15:28:03.093Z,940.55
2019-01-30T15:29:03.088Z,940.58
2019-01-30T15:30:03.793Z,940.60
2019-01-30T15:31:03.065Z,940.55
2019-01-30T15:32:03.070Z,940.55
2019-01-30T15:33:03.056Z,940.54
2019-01-30T15:34:03.042Z,940.54
2019-01-30T15:35:03.031Z,940.58
2019-01-30T15:36:03.027Z,940.56
2019-01-30T15:37:03.018Z,940.56
2019-01-30T15:38:03.027Z,940.55
2019-01-30T15:39:03.001Z,940.57
2019-01-30T15:40:02.993Z,940.59